OERR

Arar Domestic Airport

Arar, Saudi Arabia
TAF OERR 162300Z 1700/1806 VRB03KT 7000 FEW040 TEMPO 1700/1709 3500 BR FEW020 PROB30 TEMPO 1701/1705 0800 FG BECMG 1708/1710 09012KT
Issued Valid From Valid To
Nov-16 @ 23:00 UTC
(10 hours ago)
Nov-17 @ 00:00 UTC
(9 hours ago)
Nov-18 @ 06:00 UTC
(in 21 hours)
Expired Click to View Nov-17 @ 00:00 to Nov-17 @ 08:00
TAF OERR 162300Z 1700/1806 VRB03KT 7000 FEW040
Wind Visibility Clouds
Variable at 3 knots 7,001 meters
  • Few at 4,000' AGL
Expired Click to View Nov-17 @ 00:00 to Nov-17 @ 09:00
TEMPO 1700/1709 3500 BR FEW020
Visibility Clouds Conditions
3,492 meters
  • Few at 2,000' AGL
  • Mist
Expired Click to View Nov-17 @ 01:00 to Nov-17 @ 05:00
PROB30 TEMPO 1701/1705 0800 FG
Visibility Conditions
805 meters
  • Fog
Becoming Nov-17 @ 08:00 to Nov-18 @ 06:00
BECMG 1708/1710 09012KT
Wind Visibility Clouds
90° at 12 knots 7,001 meters
  • Few at 4,000' AGL
TAF OERR 162300Z 1700/1806 VRB03KT 7000 FEW040 TEMPO 1700/1709 3500 BR FEW020 PROB30 TEMPO 1701/1705 0800 FG BECMG 1708/1710 09012KT
Issued Nov-16 @ 23:00 UTC
(10 hours ago)
Valid From Nov-17 @ 00:00 UTC
(9 hours ago)
Valid To Nov-18 @ 06:00 UTC
(in 21 hours)
Nov-17 @ 00:00 - Nov-17 @ 08:00
Wind Visibility
Variable at 3 knots 7,001 meters
Clouds
  • Few at 4,000' AGL
Nov-17 @ 00:00 - Nov-17 @ 09:00
Clouds
  • Few at 2,000' AGL
Conditions
  • Mist
Nov-17 @ 01:00 - Nov-17 @ 05:00
Conditions
  • Fog
Becoming Nov-17 @ 08:00 - Nov-18 @ 06:00
Wind Visibility
90° at 12 knots 7,001 meters
Clouds
  • Few at 4,000' AGL